Time;durP1;ratioP1;P1;durP2;ratioP2;P2;SDS_P1;SDS_P2;PMS_P1;PMS_P2;Temp;Humidity;BMP_temperature;BMP_pressure;BME280_temperature;BME280_humidity;BME280_pressure;Samples;Min_cycle;Max_cycle;Signal;HPM_P1;HPM_P2
2022/06/02 00:00:18;;;;;;;11.93;6.97;;;;;;;12.83;89.45;99880.13;4196302;28;20238;-75
2022/06/02 00:03:22;;;;;;;10.23;6.80;;;;;;;12.91;88.20;99864.09;4202411;28;21290;-73
2022/06/02 00:06:19;;;;;;;9.47;6.07;;;;;;;13.04;87.87;99867.03;4172883;28;21464;-70
2022/06/02 00:09:12;;;;;;;15.10;7.40;;;;;;;13.07;88.62;99866.69;4204787;28;20286;-71
2022/06/02 00:12:02;;;;;;;13.57;7.77;;;;;;;13.10;87.55;99885.03;4175129;28;20234;-69
2022/06/02 00:15:14;;;;;;;13.10;7.30;;;;;;;13.05;87.84;99887.38;4162204;28;20681;-71
2022/06/02 00:17:46;;;;;;;13.30;7.33;;;;;;;12.94;88.52;99884.28;4234149;28;20358;-68
2022/06/02 00:20:19;;;;;;;12.33;7.03;;;;;;;13.00;87.30;99889.75;4197337;28;20979;-69
2022/06/02 00:23:04;;;;;;;13.30;7.03;;;;;;;12.96;88.02;99885.75;4167531;28;20241;-70
2022/06/02 00:26:01;;;;;;;11.73;7.20;;;;;;;13.13;86.98;99888.34;4175375;28;24061;-68
2022/06/02 00:28:50;;;;;;;11.20;6.40;;;;;;;13.34;85.03;99882.41;4209974;28;21071;-73
2022/06/02 00:31:29;;;;;;;10.03;6.57;;;;;;;13.44;84.03;99891.88;4185569;28;20230;-70
2022/06/02 00:34:14;;;;;;;10.77;6.50;;;;;;;13.43;83.13;99884.88;4192632;28;20374;-69
2022/06/02 00:36:59;;;;;;;12.37;6.83;;;;;;;13.45;82.09;99890.03;4169391;28;21414;-71
2022/06/02 00:39:27;;;;;;;11.17;6.80;;;;;;;13.58;81.26;99901.00;4162067;28;20462;-69
2022/06/02 00:41:55;;;;;;;11.87;5.97;;;;;;;13.55;81.40;99897.81;4207065;28;20288;-71
2022/06/02 00:44:44;;;;;;;11.77;7.07;;;;;;;13.38;83.89;99897.94;4174343;28;20286;-71
2022/06/02 00:47:33;;;;;;;10.30;6.60;;;;;;;13.34;83.96;99901.13;4185701;28;21747;-72
2022/06/02 00:50:37;;;;;;;9.43;5.90;;;;;;;13.39;84.47;99902.28;4200709;28;20715;-71
2022/06/02 00:53:28;;;;;;;10.97;6.47;;;;;;;13.37;84.58;99920.34;4158721;28;20289;-72
2022/06/02 00:59:40;;;;;;;12.20;6.33;;;;;;;13.25;84.03;99924.34;4152069;28;20233;-74
2022/06/02 01:02:07;;;;;;;12.23;6.53;;;;;;;13.19;84.33;99933.91;4176933;28;22235;-71
2022/06/02 01:04:36;;;;;;;8.67;6.23;;;;;;;13.12;83.94;99942.81;4192861;28;21831;-69
2022/06/02 01:07:35;;;;;;;11.40;6.70;;;;;;;13.14;83.97;99935.44;4189681;28;20321;-70
2022/06/02 01:10:10;;;;;;;10.33;5.57;;;;;;;13.19;83.87;99927.75;4184763;28;20534;-75
2022/06/02 01:12:41;;;;;;;8.90;5.57;;;;;;;13.37;82.66;99933.69;4189554;28;20406;-71
2022/06/02 01:15:18;;;;;;;10.63;6.03;;;;;;;13.40;82.57;99938.69;4207101;28;25603;-70
2022/06/02 01:18:12;;;;;;;7.83;5.90;;;;;;;13.52;81.67;99944.47;4178766;28;20245;-71
2022/06/02 01:20:51;;;;;;;11.80;5.50;;;;;;;13.52;81.52;99939.94;4190714;28;20241;-73
2022/06/02 01:23:36;;;;;;;10.93;5.77;;;;;;;13.43;81.85;99940.16;4164256;28;21356;-69
2022/06/02 01:26:30;;;;;;;9.00;5.30;;;;;;;13.45;81.61;99936.31;4181879;28;22077;-75
2022/06/02 01:29:34;;;;;;;11.53;5.53;;;;;;;13.42;82.42;99934.00;4196212;28;20229;-74
2022/06/02 01:32:14;;;;;;;9.77;6.17;;;;;;;13.38;81.74;99930.00;4179454;28;22972;-72
2022/06/02 01:34:56;;;;;;;14.03;6.07;;;;;;;13.33;82.24;99919.00;4161945;28;21887;-71
2022/06/02 01:37:39;;;;;;;8.70;5.90;;;;;;;13.29;81.69;99912.34;4187044;28;22538;-70
2022/06/02 01:40:23;;;;;;;14.33;5.87;;;;;;;13.45;82.02;99917.59;4177585;28;20348;-71
2022/06/02 01:43:08;;;;;;;15.97;6.23;;;;;;;13.54;82.72;99909.53;4188691;28;20344;-75
2022/06/02 01:45:47;;;;;;;7.30;5.70;;;;;;;13.55;80.89;99911.19;4219144;28;20292;-71
2022/06/02 01:48:37;;;;;;;8.40;5.60;;;;;;;13.43;81.75;99911.59;4171827;28;20280;-71
2022/06/02 01:51:37;;;;;;;10.70;5.80;;;;;;;13.41;81.11;99913.59;4179046;28;22239;-71
2022/06/02 01:54:29;;;;;;;9.10;6.13;;;;;;;13.45;81.34;99901.56;4208249;28;20234;-71
2022/06/02 01:57:15;;;;;;;9.27;5.80;;;;;;;13.49;81.20;99896.72;4215518;28;20233;-69
2022/06/02 02:00:14;;;;;;;7.03;5.07;;;;;;;13.45;81.85;99896.22;4188198;28;20281;-70
2022/06/02 02:03:05;;;;;;;11.33;6.27;;;;;;;13.37;82.08;99882.91;4212052;28;20234;-71
2022/06/02 02:05:34;;;;;;;9.10;5.67;;;;;;;13.36;81.15;99877.75;4167582;28;26521;-70
2022/06/02 02:08:27;;;;;;;10.47;5.30;;;;;;;13.34;81.32;99867.22;4167726;28;21252;-70
2022/06/02 02:11:07;;;;;;;8.77;5.10;;;;;;;13.32;81.23;99837.16;4175751;28;21586;-70
2022/06/02 02:14:00;;;;;;;6.83;4.80;;;;;;;13.41;81.11;99844.13;4208378;28;20251;-72
2022/06/02 02:16:45;;;;;;;7.73;5.60;;;;;;;13.51;80.15;99846.56;4164933;28;20280;-71
2022/06/02 02:19:25;;;;;;;10.00;5.60;;;;;;;13.56;80.44;99854.06;4174080;28;20241;-73
2022/06/02 02:22:33;;;;;;;8.87;5.07;;;;;;;13.51;80.58;99868.78;4164030;28;20571;-71
2022/06/02 02:25:09;;;;;;;11.77;6.13;;;;;;;13.36;82.85;99873.22;4175267;28;21199;-71
2022/06/02 02:28:04;;;;;;;11.80;6.90;;;;;;;13.42;83.14;99877.03;4168678;28;20251;-71
2022/06/02 02:30:50;;;;;;;10.47;5.67;;;;;;;13.60;82.46;99872.25;4183344;28;20244;-70
2022/06/02 02:33:30;;;;;;;7.80;5.57;;;;;;;13.69;82.87;99875.66;4169783;28;20238;-72
2022/06/02 02:36:02;;;;;;;9.87;7.17;;;;;;;13.53;83.20;99884.63;4165816;28;21877;-72
2022/06/02 02:38:42;;;;;;;12.37;7.40;;;;;;;13.58;83.53;99884.09;4172449;28;20238;-70
2022/06/02 02:41:19;;;;;;;12.37;8.27;;;;;;;13.42;84.61;99901.09;4211188;28;20225;-69
2022/06/02 02:44:03;;;;;;;12.30;7.83;;;;;;;13.29;85.55;99912.34;4167658;28;20321;-71
2022/06/02 02:46:37;;;;;;;10.00;7.00;;;;;;;13.44;85.11;99929.31;4198133;28;20706;-72
2022/06/02 02:49:17;;;;;;;9.70;6.27;;;;;;;13.45;85.16;99938.97;4155887;28;20302;-71
2022/06/02 02:52:05;;;;;;;11.73;6.37;;;;;;;13.60;84.16;99955.13;4170248;28;20288;-72
2022/06/02 02:54:37;;;;;;;10.87;5.83;;;;;;;13.68;82.32;99970.28;4166338;28;21112;-71
2022/06/02 02:57:22;;;;;;;10.37;6.00;;;;;;;13.65;82.35;99974.13;4169149;28;20280;-71
2022/06/02 03:00:18;;;;;;;12.13;6.40;;;;;;;13.63;81.83;99969.97;4211234;28;21894;-73
2022/06/02 03:03:09;;;;;;;9.67;6.03;;;;;;;13.56;82.38;99977.03;4171958;28;20298;-71
2022/06/02 03:06:07;;;;;;;7.57;5.47;;;;;;;13.57;82.62;99984.03;4198509;28;20237;-69
2022/06/02 03:08:53;;;;;;;11.43;5.97;;;;;;;13.51;83.56;100001.63;4184403;28;20246;-71
2022/06/02 03:11:35;;;;;;;11.53;5.63;;;;;;;13.48;84.10;100000.09;4190873;28;20249;-72
2022/06/02 03:14:08;;;;;;;10.33;5.47;;;;;;;13.47;83.70;100016.34;4191842;28;20241;-70
2022/06/02 03:16:37;;;;;;;10.03;5.77;;;;;;;13.40;84.64;100018.84;4176442;28;22578;-71
2022/06/02 03:19:38;;;;;;;7.23;5.43;;;;;;;13.37;84.84;100015.69;4187094;28;20241;-72
2022/06/02 03:22:21;;;;;;;8.33;5.60;;;;;;;13.27;86.30;100010.53;4195122;28;20379;-69
2022/06/02 03:24:57;;;;;;;11.50;5.93;;;;;;;13.19;87.22;100015.91;4178013;28;21654;-71
2022/06/02 03:27:38;;;;;;;9.53;6.47;;;;;;;13.03;90.82;100017.63;4177468;28;20377;-72
2022/06/02 03:30:24;;;;;;;12.33;6.93;;;;;;;12.92;92.73;100027.81;4204684;28;20405;-73
2022/06/02 03:33:09;;;;;;;12.17;6.40;;;;;;;12.93;93.29;100035.69;4155126;28;20237;-71
2022/06/02 03:35:43;;;;;;;11.23;6.73;;;;;;;12.80;94.07;100033.50;4231061;28;20306;-70
2022/06/02 03:38:16;;;;;;;12.10;7.13;;;;;;;12.65;95.19;100038.72;4195165;28;22202;-70
2022/06/02 03:41:14;;;;;;;9.23;6.40;;;;;;;12.61;96.30;100033.88;4201212;28;20253;-71
2022/06/02 03:44:01;;;;;;;11.93;6.47;;;;;;;12.58;95.65;100019.03;4215734;28;21258;-73
2022/06/02 03:46:46;;;;;;;9.30;5.93;;;;;;;12.59;96.69;100001.19;4215413;28;20288;-72
2022/06/02 03:49:48;;;;;;;11.03;6.83;;;;;;;12.54;98.22;99998.19;4213983;28;20246;-70
2022/06/02 03:52:45;;;;;;;10.13;6.40;;;;;;;12.63;98.24;99998.00;4177122;28;21767;-72
2022/06/02 03:55:36;;;;;;;8.50;6.20;;;;;;;12.64;98.87;100007.69;4187683;28;20444;-71
2022/06/02 03:58:16;;;;;;;9.10;6.70;;;;;;;12.63;98.16;100003.34;4205992;28;20671;-70
2022/06/02 04:00:54;;;;;;;14.43;6.87;;;;;;;12.60;98.95;100006.34;4193685;28;20232;-71
2022/06/02 04:03:59;;;;;;;12.40;6.80;;;;;;;12.59;98.54;100001.19;4190362;28;21890;-71
2022/06/02 04:06:32;;;;;;;10.73;6.80;;;;;;;12.43;99.74;100007.34;4201233;28;20343;-73
2022/06/02 04:09:12;;;;;;;12.83;7.00;;;;;;;12.34;100.00;100003.88;4199937;28;20334;-71
2022/06/02 04:14:44;;;;;;;10.43;6.90;;;;;;;12.24;100.00;100019.19;4209327;28;21748;-71
2022/06/02 04:17:28;;;;;;;9.70;6.20;;;;;;;12.19;100.00;100027.69;4197762;28;20237;-72
2022/06/02 04:23:21;;;;;;;16.93;7.83;;;;;;;12.38;100.00;100031.03;4216084;28;21218;-71
2022/06/02 04:25:52;;;;;;;13.60;6.37;;;;;;;12.48;99.55;100023.72;4222067;28;20284;-72
2022/06/02 04:28:28;;;;;;;17.40;7.17;;;;;;;12.38;99.69;100029.19;4210705;28;20243;-70
2022/06/02 04:31:23;;;;;;;17.57;7.10;;;;;;;12.42;99.57;100027.06;4199841;28;21747;-72
2022/06/02 04:34:07;;;;;;;13.00;6.30;;;;;;;12.39;99.82;100022.06;4226743;28;20304;-73
2022/06/02 04:36:48;;;;;;;13.57;7.50;;;;;;;12.28;100.00;100025.06;4208905;28;20682;-70
2022/06/02 04:39:26;;;;;;;15.80;5.90;;;;;;;12.35;99.40;100034.88;4192714;28;20235;-73
2022/06/02 04:42:45;;;;;;;11.17;6.50;;;;;;;12.34;100.00;100035.03;4235924;28;20230;-71
2022/06/02 04:45:36;;;;;;;17.43;6.40;;;;;;;12.45;99.96;100034.72;4146277;28;20331;-71
2022/06/02 04:48:18;;;;;;;11.10;6.00;;;;;;;12.44;100.00;100035.72;4200949;28;20277;-69
2022/06/02 04:50:55;;;;;;;14.90;6.03;;;;;;;12.38;100.00;100034.53;4175487;28;20513;-73
2022/06/02 04:53:55;;;;;;;16.93;6.23;;;;;;;12.44;99.72;100036.56;4212689;28;20234;-71
2022/06/02 04:56:38;;;;;;;11.20;6.30;;;;;;;12.45;99.70;100037.38;4206321;28;23835;-73
2022/06/02 04:59:22;;;;;;;17.73;5.83;;;;;;;12.49;100.00;100032.56;4221866;28;20644;-73
2022/06/02 05:02:05;;;;;;;14.03;6.13;;;;;;;12.40;100.00;100013.03;4256119;28;20281;-73
2022/06/02 05:04:41;;;;;;;12.13;5.43;;;;;;;12.33;100.00;100020.03;4172399;28;20270;-71
2022/06/02 05:07:33;;;;;;;12.87;5.80;;;;;;;12.31;100.00;100024.72;4212939;28;22553;-72
2022/06/02 05:10:18;;;;;;;8.80;5.20;;;;;;;12.19;100.00;100033.03;4219032;28;20428;-71
2022/06/02 05:13:12;;;;;;;14.13;5.67;;;;;;;12.24;100.00;100030.72;4216168;28;22191;-72
2022/06/02 05:15:51;;;;;;;19.83;8.87;;;;;;;12.21;100.00;100033.72;4191051;28;22896;-72
2022/06/02 05:18:23;;;;;;;16.13;5.63;;;;;;;12.30;100.00;100025.72;4184204;28;21343;-74
2022/06/02 05:21:25;;;;;;;18.67;5.67;;;;;;;12.32;100.00;100005.88;4198823;28;21449;-70
2022/06/02 05:24:06;;;;;;;9.47;5.00;;;;;;;12.31;100.00;100017.53;4179661;28;20476;-70
2022/06/02 05:27:24;;;;;;;9.77;5.23;;;;;;;12.41;100.00;100020.06;4204828;28;20246;-71
2022/06/02 05:30:13;;;;;;;10.33;4.90;;;;;;;12.46;100.00;100017.72;4198188;28;21966;-71
2022/06/02 05:32:51;;;;;;;10.83;5.03;;;;;;;12.52;100.00;100005.53;4211079;28;20337;-73
2022/06/02 05:35:31;;;;;;;9.37;4.67;;;;;;;12.50;100.00;100004.84;4165135;28;23449;-71
2022/06/02 05:38:34;;;;;;;9.03;5.50;;;;;;;12.42;100.00;100006.53;4193177;28;21607;-71
2022/06/02 05:41:24;;;;;;;11.57;6.40;;;;;;;12.36;100.00;100003.69;4187383;28;20230;-74
2022/06/02 05:43:56;;;;;;;10.70;5.17;;;;;;;12.37;100.00;100008.88;4197351;28;20277;-71
2022/06/02 05:46:55;;;;;;;9.17;5.17;;;;;;;12.34;100.00;100013.69;4185642;28;20281;-71
2022/06/02 05:49:44;;;;;;;6.07;4.57;;;;;;;12.41;100.00;100014.72;4217904;28;21623;-71
2022/06/02 05:52:22;;;;;;;7.37;4.40;;;;;;;12.46;100.00;100012.38;4203432;28;21298;-71
2022/06/02 05:55:23;;;;;;;10.10;4.47;;;;;;;12.45;100.00;100018.69;4194387;28;20767;-74
2022/06/02 05:58:04;;;;;;;11.57;4.60;;;;;;;12.43;100.00;100026.91;4185164;28;20264;-71
2022/06/02 06:00:36;;;;;;;10.90;4.73;;;;;;;12.39;100.00;100028.22;4224409;28;20233;-71
2022/06/02 06:03:19;;;;;;;6.73;4.60;;;;;;;12.42;100.00;100033.22;4198876;28;20386;-71
2022/06/02 06:05:50;;;;;;;10.93;5.00;;;;;;;12.51;100.00;100042.06;4163225;28;21554;-70
2022/06/02 06:08:37;;;;;;;10.27;5.03;;;;;;;12.41;100.00;100055.56;4149792;28;20301;-72
2022/06/02 06:11:14;;;;;;;12.27;4.80;;;;;;;12.39;100.00;100054.91;4165865;28;20273;-74
2022/06/02 06:13:46;;;;;;;10.30;5.27;;;;;;;12.51;100.00;100042.06;4198757;28;22214;-72
2022/06/02 06:16:39;;;;;;;7.03;5.10;;;;;;;12.71;100.00;100047.03;4160995;28;23710;-72
2022/06/02 06:19:39;;;;;;;10.60;5.40;;;;;;;12.99;100.00;100034.97;4181933;28;21698;-71
2022/06/02 06:22:34;;;;;;;9.90;4.83;;;;;;;14.04;100.00;100028.53;4174107;28;25706;-74
2022/06/02 06:25:10;;;;;;;6.80;3.70;;;;;;;16.78;83.18;100053.44;4195676;28;20256;-72
2022/06/02 06:28:01;;;;;;;7.50;2.97;;;;;;;18.95;71.42;100074.38;4238667;28;20238;-70
2022/06/02 06:31:06;;;;;;;8.33;3.10;;;;;;;20.18;61.84;100087.13;4289332;28;20819;-72
2022/06/02 06:33:36;;;;;;;7.37;2.93;;;;;;;20.82;58.24;100087.94;4275211;28;20294;-71
2022/06/02 06:36:06;;;;;;;7.53;2.67;;;;;;;21.53;54.44;100095.81;4273642;28;21264;-71
2022/06/02 06:38:51;;;;;;;3.23;2.43;;;;;;;22.36;53.19;100100.63;4296849;28;21304;-74
2022/06/02 06:41:37;;;;;;;7.87;2.50;;;;;;;22.62;49.89;100104.84;4186466;28;20294;-72
2022/06/02 06:44:20;;;;;;;5.37;2.17;;;;;;;24.28;45.02;100114.53;4214068;28;20459;-74
2022/06/02 06:47:42;;;;;;;4.57;2.10;;;;;;;25.00;40.79;100113.03;4264572;28;20691;-71
2022/06/02 06:50:40;;;;;;;4.07;2.27;;;;;;;25.31;42.02;100118.97;4189604;28;20234;-74
2022/06/02 06:53:36;;;;;;;4.90;2.30;;;;;;;22.25;51.06;100104.94;4197232;28;21015;-72
2022/06/02 06:56:21;;;;;;;4.17;2.20;;;;;;;21.50;53.16;100095.22;4240909;28;20239;-75
2022/06/02 06:58:51;;;;;;;4.10;1.70;;;;;;;20.73;55.23;100101.97;4201677;28;21243;-73
2022/06/02 07:01:26;;;;;;;3.37;1.53;;;;;;;22.14;53.11;100111.13;4191785;28;20762;-73
2022/06/02 07:04:10;;;;;;;2.87;1.77;;;;;;;22.29;52.09;100102.63;4215488;28;20630;-77
2022/06/02 07:06:57;;;;;;;3.97;2.00;;;;;;;20.53;56.42;100100.19;4181802;28;20235;-75
2022/06/02 07:09:46;;;;;;;3.80;1.60;;;;;;;20.05;58.30;100097.97;4164222;28;20350;-75
2022/06/02 07:15:11;;;;;;;2.70;1.80;;;;;;;19.46;61.49;100099.84;4208107;28;20241;-75
2022/06/02 07:17:47;;;;;;;2.60;2.00;;;;;;;18.80;63.31;100100.75;4203010;28;23078;-72
2022/06/02 07:21:11;;;;;;;6.57;1.90;;;;;;;18.21;64.79;100101.44;4222162;28;20426;-72
2022/06/02 07:24:27;;;;;;;4.37;1.97;;;;;;;17.37;69.84;100107.84;4232634;28;20297;-72
2022/06/02 07:27:18;;;;;;;2.67;2.00;;;;;;;17.70;71.56;100118.84;4197196;28;22979;-72
2022/06/02 07:30:03;;;;;;;2.63;1.70;;;;;;;18.05;67.55;100126.84;4196419;28;20238;-76
2022/06/02 07:32:49;;;;;;;2.70;1.80;;;;;;;18.21;66.19;100114.91;4231522;28;20389;-73
2022/06/02 07:35:34;;;;;;;3.40;1.77;;;;;;;18.86;64.33;100124.16;4204411;28;20665;-78
2022/06/02 07:38:11;;;;;;;3.00;1.50;;;;;;;18.53;65.86;100124.09;4223263;28;21958;-74
2022/06/02 07:41:00;;;;;;;4.53;1.67;;;;;;;18.45;67.10;100126.97;4197239;28;20403;-73
2022/06/02 07:43:41;;;;;;;5.83;1.80;;;;;;;18.80;62.66;100141.19;4204668;28;20680;-72
2022/06/02 07:46:32;;;;;;;2.60;1.53;;;;;;;18.67;63.44;100155.44;4204132;28;20318;-74
2022/06/02 07:49:09;;;;;;;2.23;1.63;;;;;;;18.06;65.88;100145.53;4227942;28;21936;-72
2022/06/02 07:51:51;;;;;;;2.43;1.40;;;;;;;17.57;69.01;100135.72;4189423;28;20307;-75
2022/06/02 07:55:10;;;;;;;3.80;1.90;;;;;;;17.29;70.79;100144.63;4187268;28;20287;-73
2022/06/02 07:58:05;;;;;;;4.60;2.10;;;;;;;16.84;73.62;100156.69;4165795;28;20304;-72
2022/06/02 08:00:53;;;;;;;3.40;2.70;;;;;;;16.24;77.25;100158.72;4184255;28;20382;-72
2022/06/02 08:03:46;;;;;;;3.83;2.30;;;;;;;15.85;76.95;100161.72;4155771;28;21314;-77
2022/06/02 08:06:35;;;;;;;4.50;2.77;;;;;;;15.62;78.48;100150.06;4215718;28;20247;-73
2022/06/02 08:09:08;;;;;;;4.83;2.73;;;;;;;15.41;77.81;100158.00;4186740;28;21417;-72
2022/06/02 08:12:04;;;;;;;5.07;2.60;;;;;;;15.25;79.97;100171.56;4228289;28;20276;-72
2022/06/02 08:14:43;;;;;;;5.53;2.80;;;;;;;15.31;80.80;100169.00;4204912;28;20341;-77
2022/06/02 08:17:23;;;;;;;7.00;2.90;;;;;;;15.56;78.83;100176.78;4174135;28;25750;-76
2022/06/02 08:19:57;;;;;;;3.50;2.70;;;;;;;15.28;77.31;100192.63;4173036;28;21108;-74
2022/06/02 08:22:32;;;;;;;3.80;2.53;;;;;;;15.26;77.87;100194.66;4220906;28;20401;-71
2022/06/02 08:25:08;;;;;;;6.63;2.70;;;;;;;15.07;78.19;100194.16;4235227;28;20277;-78
2022/06/02 08:28:04;;;;;;;3.73;2.50;;;;;;;15.31;78.29;100197.63;4218196;28;20247;-73
2022/06/02 08:30:57;;;;;;;5.47;2.70;;;;;;;15.38;77.09;100198.56;4209130;28;21970;-72
2022/06/02 08:33:37;;;;;;;4.10;2.17;;;;;;;15.73;73.99;100204.28;4167253;28;21576;-75
2022/06/02 08:36:09;;;;;;;2.87;2.00;;;;;;;16.14;73.34;100204.66;4190650;28;20305;-73
2022/06/02 08:38:55;;;;;;;5.97;2.20;;;;;;;16.10;70.75;100205.22;4245768;28;20245;-72
2022/06/02 08:41:46;;;;;;;4.33;2.10;;;;;;;15.85;70.07;100199.28;4204161;28;20466;-73
2022/06/02 08:44:45;;;;;;;3.57;2.23;;;;;;;15.73;71.93;100201.59;4178979;28;20251;-72
2022/06/02 08:47:31;;;;;;;3.30;1.80;;;;;;;15.91;69.83;100207.44;4184764;28;20348;-73
2022/06/02 21:46:02;;;;;;;7.40;4.40;;;;;;;11.34;90.23;100533.13;5929097;22;1404442;-75
2022/06/02 21:49:00;;;;;;;7.47;3.73;;;;;;;11.29;89.83;100546.06;5055075;23;21880;-75
2022/06/02 21:51:42;;;;;;;12.07;4.10;;;;;;;11.17;90.54;100540.91;4990366;23;20350;-73
2022/06/02 21:54:38;;;;;;;10.17;4.30;;;;;;;11.15;91.30;100545.53;5049650;23;20246;-74
2022/06/02 21:57:14;;;;;;;12.20;5.30;;;;;;;11.12;91.59;100539.66;5041634;23;20212;-74
2022/06/02 21:59:50;;;;;;;10.90;4.70;;;;;;;10.97;92.20;100552.63;5033130;23;20858;-74
2022/06/02 22:02:21;;;;;;;12.07;4.90;;;;;;;10.95;92.72;100549.25;5022245;23;21029;-74
2022/06/02 22:05:01;;;;;;;11.63;5.00;;;;;;;11.11;91.96;100548.66;5020379;23;20780;-73
2022/06/02 22:07:38;;;;;;;10.97;5.00;;;;;;;11.08;92.08;100555.09;5008079;23;20209;-75
2022/06/02 22:10:09;;;;;;;7.80;4.27;;;;;;;11.06;92.44;100548.25;5027366;23;20320;-77
2022/06/02 22:12:58;;;;;;;11.70;5.00;;;;;;;11.04;92.15;100550.22;5031992;23;20205;-75
2022/06/02 22:15:30;;;;;;;12.00;5.43;;;;;;;11.05;92.90;100549.22;5026853;23;20950;-75
2022/06/02 22:18:20;;;;;;;11.13;5.93;;;;;;;11.06;92.38;100543.75;5029509;23;20642;-74
2022/06/02 22:21:10;;;;;;;7.90;5.20;;;;;;;11.15;91.97;100544.72;5020924;23;20220;-73
2022/06/02 22:24:14;;;;;;;9.33;4.90;;;;;;;11.09;91.61;100540.78;5048309;23;21693;-76
2022/06/02 22:26:55;;;;;;;8.80;5.03;;;;;;;11.07;91.60;100541.94;5057538;23;20209;-73
2022/06/02 22:29:41;;;;;;;12.80;4.87;;;;;;;11.05;92.26;100543.88;5015665;23;20355;-73
2022/06/02 22:32:35;;;;;;;9.70;5.37;;;;;;;10.95;92.41;100546.59;5043360;23;21760;-75
2022/06/02 22:35:10;;;;;;;11.83;5.20;;;;;;;10.99;92.65;100543.50;5014660;23;21550;-74
2022/06/02 22:38:17;;;;;;;9.67;4.17;;;;;;;10.99;92.26;100546.16;5054010;23;20204;-73
2022/06/02 22:41:21;;;;;;;9.80;4.80;;;;;;;11.06;91.07;100545.59;5019105;23;20260;-75
2022/06/02 22:44:09;;;;;;;13.53;5.00;;;;;;;10.98;91.51;100552.47;5045400;23;20687;-74
2022/06/02 22:46:45;;;;;;;9.07;4.83;;;;;;;10.92;92.08;100554.88;5010691;23;22369;-75
2022/06/02 22:49:43;;;;;;;9.03;4.90;;;;;;;10.83;92.07;100550.41;5015053;23;20843;-74
2022/06/02 22:52:24;;;;;;;13.40;4.70;;;;;;;10.85;92.36;100551.94;5020595;23;20210;-73
2022/06/02 22:55:02;;;;;;;11.23;6.10;;;;;;;10.81;92.47;100558.53;5024832;23;20205;-74
2022/06/02 22:57:46;;;;;;;14.50;5.53;;;;;;;10.71;92.82;100563.06;5015691;23;20205;-73
2022/06/02 23:00:22;;;;;;;14.10;5.37;;;;;;;10.75;92.88;100559.13;5024479;23;21219;-74
2022/06/02 23:03:04;;;;;;;9.80;5.10;;;;;;;10.76;93.19;100560.78;5022376;23;20209;-74
2022/06/02 23:06:05;;;;;;;11.30;4.90;;;;;;;10.57;93.43;100566.97;5015064;23;20252;-73
2022/06/02 23:08:44;;;;;;;11.60;5.17;;;;;;;10.51;94.52;100570.19;5018668;23;21558;-73
2022/06/02 23:11:27;;;;;;;9.57;4.87;;;;;;;10.56;94.15;100571.47;5023239;23;20253;-73
2022/06/02 23:14:21;;;;;;;11.20;5.17;;;;;;;10.51;94.17;100565.75;5025602;23;21574;-74
2022/06/02 23:17:25;;;;;;;11.57;4.53;;;;;;;10.47;94.74;100572.31;5016097;23;20209;-73
2022/06/02 23:20:01;;;;;;;11.37;4.90;;;;;;;10.48;94.31;100571.31;5034300;23;20270;-74
2022/06/02 23:22:47;;;;;;;10.73;5.37;;;;;;;10.52;94.40;100563.91;5020715;23;20942;-73
2022/06/02 23:25:38;;;;;;;17.40;5.70;;;;;;;10.42;94.39;100565.72;5023052;23;21213;-72
2022/06/02 23:28:29;;;;;;;9.93;5.23;;;;;;;10.44;94.70;100561.09;5024747;23;20270;-72
2022/06/02 23:31:45;;;;;;;19.10;5.93;;;;;;;10.51;94.21;100571.06;5007446;23;20235;-72
2022/06/02 23:34:29;;;;;;;10.80;5.57;;;;;;;10.53;94.09;100571.72;5045494;23;20297;-75
2022/06/02 23:37:05;;;;;;;16.07;5.60;;;;;;;10.44;94.94;100577.94;5023713;23;20205;-76
2022/06/02 23:39:42;;;;;;;10.93;5.83;;;;;;;10.40;94.87;100576.53;5037229;23;20260;-76
2022/06/02 23:45:28;;;;;;;11.40;5.53;;;;;;;10.48;94.97;100581.97;5036136;23;20209;-75
2022/06/02 23:48:16;;;;;;;18.27;6.13;;;;;;;10.54;94.27;100586.75;5020155;23;20223;-75
2022/06/02 23:51:13;;;;;;;19.73;6.43;;;;;;;10.52;94.77;100586.03;5024373;23;20206;-75
2022/06/02 23:54:08;;;;;;;12.57;6.40;;;;;;;10.42;94.46;100592.31;5022024;23;21588;-75
2022/06/02 23:56:37;;;;;;;11.30;5.87;;;;;;;10.30;95.31;100591.63;5038896;23;21767;-74
2022/06/02 23:59:36;;;;;;;13.73;6.37;;;;;;;10.32;95.06;100597.66;5033618;23;20215;-75
